メインページ
METAR-TAF:

METAR-TAF

空港 :

ワガドゥグー, ブルキナファソ

ワガドゥグー空港

緯度: 12-21N, 経度: 001-31W, 海抜: 316m

現時点の気象観測

当レポートは42分前の09:00(UTC)に作成
南/南東の風 8kt、東/南東からの間で変化する
気温 34°C
湿度 16%
気圧 1014 hPa
視程: 8000m

METAR: DFFD 250900Z 15008KT 110V170 8000 NSC 34/05 Q1014 NOSIG

時間: 09:42 (09:42 UTC)

予報

当レポートは4時間42分前の05:00(UTC)に作成
予報は25日の 06時(UTC)から 26日の 12時(UTC)まで有効
東/北東の風 10kt
視程: 8000m
25日の 07時(UTC)から 25日の 10時(UTC)まで一時的に
視程: 4000m
煙霧
25日の 17時(UTC)から 25日の 20時(UTC)まで一時的に
視程: 4000m
煙霧

TAF: DFFD 250500Z 2506/2612 06010KT 8000 NSC TEMPO 2507/2510 4000 HZ TEMPO 2517/2520 4000 HZ

4,000以上の空港の気象観測と天気予報(METAR報とTAF報)

利用可能な観測所は地図上に黄色い丸と赤い丸で示す。

丸の上にカーソルを重ねると観測所名を参照できる。

次にクリックすると気象観測と天気予報を参照できる。

マップの切り替え:黒色「×」印の緑ボタンをクリックして拡大、「-」印の緑ボタンをクリックして縮小、緑色の三角印をクリックして隣りの地図に切り替え


METAR-TAF: